createdAt,value
2022-11-12T00:05:05.089Z,98.85
2022-11-12T00:11:07.369Z,99.64
2022-11-12T00:17:09.246Z,99.12
2022-11-12T00:23:11.141Z,97.53
2022-11-12T00:29:13.000Z,96.59
2022-11-12T00:35:14.943Z,96.47
2022-11-12T00:41:16.778Z,97.48
2022-11-12T00:47:18.838Z,97.48
2022-11-12T00:53:20.697Z,97.14
2022-11-12T00:59:22.706Z,97.52
2022-11-12T01:05:24.583Z,97.77
2022-11-12T01:11:29.505Z,98.46
2022-11-12T01:17:32.052Z,98.05
2022-11-12T01:23:40.202Z,98.00
2022-11-12T01:29:42.104Z,97.17
2022-11-12T01:35:43.961Z,97.01
2022-11-12T01:41:45.925Z,96.89
2022-11-12T01:47:51.038Z,97.02
2022-11-12T01:53:58.521Z,97.34
2022-11-12T02:00:07.856Z,98.13
2022-11-12T02:06:14.279Z,98.35
2022-11-12T02:12:36.305Z,99.19
2022-11-12T02:18:38.185Z,98.22
2022-11-12T02:24:40.067Z,98.49
2022-11-12T02:30:49.358Z,99.33
2022-11-12T02:36:51.244Z,100.00
2022-11-12T02:42:53.178Z,100.00
2022-11-12T02:48:55.028Z,100.00
2022-11-12T02:54:56.878Z,100.00
2022-11-12T03:00:58.943Z,99.78
2022-11-12T03:07:00.883Z,100.00
2022-11-12T03:13:03.265Z,100.00
2022-11-12T03:19:05.150Z,100.00
2022-11-12T03:25:08.861Z,100.00
2022-11-12T03:31:11.932Z,100.00
2022-11-12T03:37:13.832Z,100.00
2022-11-12T03:43:15.731Z,100.00
2022-11-12T03:49:17.575Z,100.00
2022-11-12T03:55:22.506Z,100.00
2022-11-12T04:01:24.407Z,100.00
2022-11-12T04:07:45.174Z,100.00
2022-11-12T04:13:47.624Z,100.00
2022-11-12T04:20:07.768Z,100.00
2022-11-12T04:26:24.730Z,100.00
2022-11-12T04:32:27.452Z,100.00
2022-11-12T04:38:29.437Z,100.00
2022-11-12T04:44:49.699Z,100.00
2022-11-12T04:51:01.288Z,100.00
2022-11-12T04:57:03.330Z,100.00
2022-11-12T05:03:05.242Z,100.00
2022-11-12T05:09:07.097Z,100.00
2022-11-12T05:15:11.661Z,100.00
2022-11-12T05:21:32.313Z,100.00
2022-11-12T05:27:34.974Z,100.00
2022-11-12T05:33:36.858Z,100.00
2022-11-12T05:39:39.011Z,100.00
2022-11-12T05:45:44.127Z,100.00
2022-11-12T05:51:46.067Z,99.70
2022-11-12T05:57:47.895Z,99.76
2022-11-12T06:03:49.791Z,100.00
2022-11-12T06:09:51.642Z,100.00
2022-11-12T06:15:55.259Z,100.00
2022-11-12T06:21:57.278Z,100.00
2022-11-12T06:27:59.457Z,100.00
2022-11-12T06:34:01.332Z,99.44
2022-11-12T06:40:03.709Z,100.00
2022-11-12T06:46:17.087Z,99.41
2022-11-12T06:52:18.941Z,99.37
2022-11-12T06:58:21.891Z,100.00
2022-11-12T07:04:25.461Z,99.83
2022-11-12T07:10:27.336Z,100.00
2022-11-12T07:16:29.206Z,98.63
2022-11-12T07:22:34.381Z,98.23
2022-11-12T07:28:36.363Z,97.44
2022-11-12T07:34:38.254Z,96.74
2022-11-12T07:40:40.167Z,97.37
2022-11-12T07:46:42.055Z,97.05
2022-11-12T07:52:43.924Z,96.35
2022-11-12T07:58:46.757Z,96.07
2022-11-12T08:04:48.608Z,96.00
2022-11-12T08:10:56.496Z,95.63
2022-11-12T08:16:58.404Z,96.45
2022-11-12T08:23:00.745Z,95.64
2022-11-12T08:29:08.267Z,95.04
2022-11-12T08:35:10.820Z,95.45
2022-11-12T08:41:14.814Z,94.54
2022-11-12T08:47:16.679Z,93.73
2022-11-12T08:53:18.583Z,93.78
2022-11-12T08:59:20.440Z,94.00
2022-11-12T09:05:22.342Z,93.76
2022-11-12T09:11:24.225Z,93.16
2022-11-12T09:17:26.114Z,93.95
2022-11-12T09:23:28.259Z,93.42
2022-11-12T09:29:30.176Z,93.39
2022-11-12T09:35:32.154Z,94.75
2022-11-12T09:41:39.931Z,95.28
2022-11-12T09:47:48.722Z,94.59
2022-11-12T09:54:27.504Z,95.00
2022-11-12T10:00:30.180Z,95.38
2022-11-12T10:06:44.299Z,94.78
2022-11-12T10:12:56.442Z,93.71
2022-11-12T10:19:34.073Z,92.08
2022-11-12T10:25:37.601Z,89.93
2022-11-12T10:31:39.476Z,89.16
2022-11-12T10:38:04.035Z,86.92
2022-11-12T10:44:13.751Z,86.70
2022-11-12T10:50:30.181Z,86.38
2022-11-12T10:56:32.629Z,84.33
2022-11-12T11:02:35.054Z,81.88
2022-11-12T11:08:42.819Z,81.20
2022-11-12T11:14:44.831Z,77.68
2022-11-12T11:20:59.509Z,77.20
2022-11-12T11:27:25.275Z,76.44
2022-11-12T11:33:55.104Z,75.66
2022-11-12T11:40:14.447Z,74.34
2022-11-12T11:46:55.116Z,74.22
2022-11-12T11:53:21.743Z,73.37
2022-11-12T11:59:46.037Z,73.96
2022-11-12T12:06:15.790Z,73.81
2022-11-12T12:12:35.830Z,73.31
2022-11-12T12:18:49.405Z,74.53
2022-11-12T12:25:10.662Z,74.14
2022-11-12T12:31:18.542Z,73.65
2022-11-12T12:38:08.939Z,73.16
2022-11-12T12:44:11.438Z,73.34
2022-11-12T12:50:17.374Z,73.42
2022-11-12T12:56:31.510Z,72.81
2022-11-12T13:02:38.757Z,72.48
2022-11-12T13:08:40.869Z,71.94
2022-11-12T13:14:42.626Z,71.63
2022-11-12T13:21:12.597Z,70.97
2022-11-12T13:27:14.465Z,72.36
2022-11-12T13:33:29.252Z,72.23
2022-11-12T13:39:36.188Z,72.91
2022-11-12T13:46:26.368Z,72.97
2022-11-12T13:52:29.320Z,73.17
2022-11-12T13:58:34.890Z,73.25
2022-11-12T14:04:36.818Z,74.39
2022-11-12T14:10:59.691Z,75.14
2022-11-12T14:17:49.706Z,76.07
2022-11-12T14:23:52.438Z,77.09
2022-11-12T14:30:18.849Z,78.47
2022-11-12T14:36:22.022Z,78.58
2022-11-12T14:42:24.202Z,81.00
2022-11-12T14:48:26.920Z,82.99
2022-11-12T14:54:34.446Z,84.03
2022-11-12T15:00:44.723Z,84.54
2022-11-12T15:06:57.752Z,84.97
2022-11-12T15:13:15.623Z,86.19
2022-11-12T15:19:21.105Z,85.83
2022-11-12T15:25:27.335Z,86.53
2022-11-12T15:31:29.701Z,86.83
2022-11-12T15:37:40.591Z,87.18
2022-11-12T15:43:43.386Z,87.29
2022-11-12T15:49:51.307Z,88.61
2022-11-12T15:55:53.251Z,89.11
2022-11-12T16:01:55.144Z,89.38
2022-11-12T16:07:57.015Z,91.45
2022-11-12T16:13:59.330Z,91.69
2022-11-12T16:20:01.273Z,92.42
2022-11-12T16:26:07.704Z,91.60
2022-11-12T16:32:14.219Z,92.32
2022-11-12T16:38:17.552Z,93.05
2022-11-12T16:44:19.482Z,92.48
2022-11-12T16:50:28.122Z,93.47
2022-11-12T16:56:33.604Z,94.02
2022-11-12T17:02:40.627Z,93.97
2022-11-12T17:08:48.000Z,94.92
2022-11-12T17:14:49.878Z,95.17
2022-11-12T17:20:51.762Z,97.04
2022-11-12T17:26:53.909Z,97.43
2022-11-12T17:32:55.750Z,97.35
2022-11-12T17:38:59.969Z,97.60
2022-11-12T17:45:01.866Z,99.03
2022-11-12T17:51:12.109Z,99.18
2022-11-12T17:57:13.988Z,98.81
2022-11-12T18:03:16.023Z,99.18
2022-11-12T18:09:17.920Z,98.94
2022-11-12T18:15:20.134Z,100.00
2022-11-12T18:21:22.715Z,100.00
2022-11-12T18:27:24.691Z,100.00
2022-11-12T18:33:27.091Z,100.00
2022-11-12T18:39:29.334Z,100.00
2022-11-12T18:45:31.214Z,100.00
2022-11-12T18:51:33.351Z,100.00
2022-11-12T18:57:35.247Z,100.00
2022-11-12T19:03:37.250Z,100.00
2022-11-12T19:09:39.307Z,100.00
2022-11-12T19:15:41.245Z,100.00
2022-11-12T19:21:43.139Z,100.00
2022-11-12T19:27:45.043Z,100.00
2022-11-12T19:33:47.368Z,100.00
2022-11-12T19:39:49.242Z,100.00
2022-11-12T19:45:51.119Z,100.00
2022-11-12T19:51:53.019Z,100.00
2022-11-12T19:57:55.242Z,100.00
2022-11-12T20:03:57.144Z,100.00
2022-11-12T20:10:01.110Z,100.00
2022-11-12T20:16:08.528Z,100.00
2022-11-12T20:22:10.978Z,100.00
2022-11-12T20:28:12.854Z,100.00
2022-11-12T20:34:14.884Z,100.00
2022-11-12T20:40:17.586Z,100.00
2022-11-12T20:46:19.623Z,100.00
2022-11-12T20:52:21.496Z,100.00
2022-11-12T20:58:23.344Z,100.00
2022-11-12T21:04:26.166Z,100.00
2022-11-12T21:10:28.105Z,100.00
2022-11-12T21:16:30.066Z,100.00
2022-11-12T21:22:32.739Z,100.00
2022-11-12T21:28:38.030Z,100.00
2022-11-12T21:34:39.891Z,100.00
2022-11-12T21:40:41.752Z,100.00
2022-11-12T21:46:43.600Z,100.00
2022-11-12T21:52:45.475Z,100.00
2022-11-12T21:58:47.369Z,100.00
2022-11-12T22:04:49.232Z,100.00
2022-11-12T22:10:51.097Z,100.00
2022-11-12T22:16:52.959Z,100.00
2022-11-12T22:22:54.884Z,100.00
2022-11-12T22:28:58.985Z,100.00
2022-11-12T22:35:00.882Z,100.00
2022-11-12T22:41:09.201Z,100.00
2022-11-12T22:47:11.083Z,100.00
2022-11-12T22:53:12.934Z,100.00
2022-11-12T22:59:14.815Z,100.00
2022-11-12T23:05:16.691Z,100.00
2022-11-12T23:11:20.073Z,99.98
2022-11-12T23:17:21.965Z,100.00
2022-11-12T23:23:23.828Z,100.00
2022-11-12T23:29:25.698Z,100.00
2022-11-12T23:35:29.326Z,100.00
2022-11-12T23:41:31.162Z,100.00
2022-11-12T23:47:33.007Z,100.00
2022-11-12T23:53:36.273Z,100.00
2022-11-12T23:59:38.166Z,100.00
